sensor_id;sensor_type;location;lat;lon;timestamp;P1;durP1;ratioP1;P2;durP2;ratioP2
12275;SDS011;6200;48.144;11.424;2022-11-11T00:02:24;0.20;;;0.20;;
12275;SDS011;6200;48.144;11.424;2022-11-11T00:04:49;0.20;;;0.20;;
12275;SDS011;6200;48.144;11.424;2022-11-11T00:07:15;0.27;;;0.27;;
12275;SDS011;6200;48.144;11.424;2022-11-11T00:09:40;0.20;;;0.20;;
12275;SDS011;6200;48.144;11.424;2022-11-11T00:12:06;0.27;;;0.27;;
12275;SDS011;6200;48.144;11.424;2022-11-11T00:14:31;0.20;;;0.20;;
12275;SDS011;6200;48.144;11.424;2022-11-11T00:16:57;0.30;;;0.30;;
12275;SDS011;6200;48.144;11.424;2022-11-11T00:19:41;0.30;;;0.30;;
12275;SDS011;6200;48.144;11.424;2022-11-11T00:22:25;0.20;;;0.20;;
12275;SDS011;6200;48.144;11.424;2022-11-11T00:25:10;0.30;;;0.30;;
12275;SDS011;6200;48.144;11.424;2022-11-11T00:27:37;0.30;;;0.30;;
12275;SDS011;6200;48.144;11.424;2022-11-11T00:30:03;0.30;;;0.30;;
12275;SDS011;6200;48.144;11.424;2022-11-11T00:32:30;0.20;;;0.20;;
12275;SDS011;6200;48.144;11.424;2022-11-11T00:34:58;0.30;;;0.30;;
12275;SDS011;6200;48.144;11.424;2022-11-11T00:37:42;0.20;;;0.20;;
12275;SDS011;6200;48.144;11.424;2022-11-11T00:40:12;0.30;;;0.30;;
12275;SDS011;6200;48.144;11.424;2022-11-11T00:42:38;0.30;;;0.30;;
12275;SDS011;6200;48.144;11.424;2022-11-11T00:45:07;0.30;;;0.30;;
12275;SDS011;6200;48.144;11.424;2022-11-11T00:47:33;0.30;;;0.30;;
12275;SDS011;6200;48.144;11.424;2022-11-11T00:50:19;0.30;;;0.30;;
12275;SDS011;6200;48.144;11.424;2022-11-11T00:55:39;0.30;;;0.30;;
12275;SDS011;6200;48.144;11.424;2022-11-11T00:58:05;0.30;;;0.30;;
12275;SDS011;6200;48.144;11.424;2022-11-11T01:00:30;0.30;;;0.30;;
12275;SDS011;6200;48.144;11.424;2022-11-11T01:02:56;0.30;;;0.30;;
12275;SDS011;6200;48.144;11.424;2022-11-11T01:05:23;0.30;;;0.30;;
12275;SDS011;6200;48.144;11.424;2022-11-11T01:07:49;0.30;;;0.30;;
12275;SDS011;6200;48.144;11.424;2022-11-11T01:10:15;0.30;;;0.30;;
12275;SDS011;6200;48.144;11.424;2022-11-11T01:13:06;0.30;;;0.30;;
12275;SDS011;6200;48.144;11.424;2022-11-11T01:15:42;0.53;;;0.53;;
12275;SDS011;6200;48.144;11.424;2022-11-11T01:18:10;0.30;;;0.30;;
12275;SDS011;6200;48.144;11.424;2022-11-11T01:20:37;0.30;;;0.30;;
12275;SDS011;6200;48.144;11.424;2022-11-11T01:23:03;0.30;;;0.30;;
12275;SDS011;6200;48.144;11.424;2022-11-11T01:25:31;0.40;;;0.40;;
12275;SDS011;6200;48.144;11.424;2022-11-11T01:28:01;0.37;;;0.37;;
12275;SDS011;6200;48.144;11.424;2022-11-11T01:30:27;0.40;;;0.40;;
12275;SDS011;6200;48.144;11.424;2022-11-11T01:32:53;0.40;;;0.40;;
12275;SDS011;6200;48.144;11.424;2022-11-11T01:35:18;0.33;;;0.33;;
12275;SDS011;6200;48.144;11.424;2022-11-11T01:37:44;0.50;;;0.50;;
12275;SDS011;6200;48.144;11.424;2022-11-11T01:40:09;0.30;;;0.30;;
12275;SDS011;6200;48.144;11.424;2022-11-11T01:42:46;0.20;;;0.20;;
12275;SDS011;6200;48.144;11.424;2022-11-11T01:51:33;0.43;;;0.43;;
12275;SDS011;6200;48.144;11.424;2022-11-11T01:54:10;0.20;;;0.20;;
12275;SDS011;6200;48.144;11.424;2022-11-11T01:56:40;0.30;;;0.30;;
12275;SDS011;6200;48.144;11.424;2022-11-11T01:59:10;0.30;;;0.30;;
12275;SDS011;6200;48.144;11.424;2022-11-11T02:01:38;0.30;;;0.30;;
12275;SDS011;6200;48.144;11.424;2022-11-11T02:04:04;0.20;;;0.20;;
12275;SDS011;6200;48.144;11.424;2022-11-11T02:06:50;0.23;;;0.23;;
12275;SDS011;6200;48.144;11.424;2022-11-11T02:09:18;0.30;;;0.30;;
12275;SDS011;6200;48.144;11.424;2022-11-11T02:11:46;0.20;;;0.20;;
12275;SDS011;6200;48.144;11.424;2022-11-11T02:14:33;0.20;;;0.20;;
12275;SDS011;6200;48.144;11.424;2022-11-11T02:17:08;0.20;;;0.20;;
12275;SDS011;6200;48.144;11.424;2022-11-11T02:19:41;0.27;;;0.27;;
12275;SDS011;6200;48.144;11.424;2022-11-11T02:22:11;0.20;;;0.20;;
12275;SDS011;6200;48.144;11.424;2022-11-11T02:24:41;0.23;;;0.23;;
12275;SDS011;6200;48.144;11.424;2022-11-11T02:27:09;0.37;;;0.37;;
12275;SDS011;6200;48.144;11.424;2022-11-11T02:29:38;0.33;;;0.33;;
12275;SDS011;6200;48.144;11.424;2022-11-11T02:32:05;0.30;;;0.30;;
12275;SDS011;6200;48.144;11.424;2022-11-11T02:34:31;0.20;;;0.20;;
12275;SDS011;6200;48.144;11.424;2022-11-11T02:36:57;0.30;;;0.30;;
12275;SDS011;6200;48.144;11.424;2022-11-11T02:39:25;0.37;;;0.37;;
12275;SDS011;6200;48.144;11.424;2022-11-11T02:41:51;0.27;;;0.27;;
12275;SDS011;6200;48.144;11.424;2022-11-11T02:44:25;0.40;;;0.40;;
12275;SDS011;6200;48.144;11.424;2022-11-11T02:46:51;0.40;;;0.40;;
12275;SDS011;6200;48.144;11.424;2022-11-11T02:49:17;0.20;;;0.20;;
12275;SDS011;6200;48.144;11.424;2022-11-11T02:51:43;0.40;;;0.40;;
12275;SDS011;6200;48.144;11.424;2022-11-11T02:54:08;0.30;;;0.30;;
12275;SDS011;6200;48.144;11.424;2022-11-11T02:56:34;0.30;;;0.30;;
12275;SDS011;6200;48.144;11.424;2022-11-11T02:59:18;0.30;;;0.30;;
12275;SDS011;6200;48.144;11.424;2022-11-11T03:01:46;0.30;;;0.30;;
12275;SDS011;6200;48.144;11.424;2022-11-11T03:04:11;0.30;;;0.30;;
12275;SDS011;6200;48.144;11.424;2022-11-11T03:06:37;0.40;;;0.40;;
12275;SDS011;6200;48.144;11.424;2022-11-11T03:09:02;0.30;;;0.30;;
12275;SDS011;6200;48.144;11.424;2022-11-11T03:11:28;0.20;;;0.20;;
12275;SDS011;6200;48.144;11.424;2022-11-11T03:13:57;0.20;;;0.20;;
12275;SDS011;6200;48.144;11.424;2022-11-11T03:16:23;0.30;;;0.30;;
12275;SDS011;6200;48.144;11.424;2022-11-11T03:19:07;0.30;;;0.30;;
12275;SDS011;6200;48.144;11.424;2022-11-11T03:21:33;0.50;;;0.50;;
12275;SDS011;6200;48.144;11.424;2022-11-11T03:23:59;0.30;;;0.30;;
12275;SDS011;6200;48.144;11.424;2022-11-11T03:26:24;0.40;;;0.40;;
12275;SDS011;6200;48.144;11.424;2022-11-11T03:28:50;0.40;;;0.40;;
12275;SDS011;6200;48.144;11.424;2022-11-11T03:31:15;0.30;;;0.30;;
12275;SDS011;6200;48.144;11.424;2022-11-11T03:33:41;0.30;;;0.30;;
12275;SDS011;6200;48.144;11.424;2022-11-11T03:36:07;0.27;;;0.27;;
12275;SDS011;6200;48.144;11.424;2022-11-11T03:38:33;0.40;;;0.40;;
12275;SDS011;6200;48.144;11.424;2022-11-11T03:40:58;0.40;;;0.40;;
12275;SDS011;6200;48.144;11.424;2022-11-11T03:43:25;0.30;;;0.30;;
12275;SDS011;6200;48.144;11.424;2022-11-11T03:45:52;0.50;;;0.50;;
12275;SDS011;6200;48.144;11.424;2022-11-11T03:48:19;0.50;;;0.50;;
12275;SDS011;6200;48.144;11.424;2022-11-11T03:50:45;0.30;;;0.30;;
12275;SDS011;6200;48.144;11.424;2022-11-11T03:53:12;0.40;;;0.40;;
12275;SDS011;6200;48.144;11.424;2022-11-11T03:55:39;0.33;;;0.33;;
12275;SDS011;6200;48.144;11.424;2022-11-11T03:58:05;0.30;;;0.30;;
12275;SDS011;6200;48.144;11.424;2022-11-11T04:00:30;0.30;;;0.30;;
12275;SDS011;6200;48.144;11.424;2022-11-11T04:03:09;0.40;;;0.40;;
12275;SDS011;6200;48.144;11.424;2022-11-11T04:05:58;0.33;;;0.33;;
12275;SDS011;6200;48.144;11.424;2022-11-11T04:08:43;0.30;;;0.30;;
12275;SDS011;6200;48.144;11.424;2022-11-11T04:11:38;0.40;;;0.40;;
12275;SDS011;6200;48.144;11.424;2022-11-11T04:14:10;0.50;;;0.50;;
12275;SDS011;6200;48.144;11.424;2022-11-11T04:16:55;0.40;;;0.40;;
12275;SDS011;6200;48.144;11.424;2022-11-11T04:19:21;0.30;;;0.30;;
12275;SDS011;6200;48.144;11.424;2022-11-11T04:22:06;0.40;;;0.40;;
12275;SDS011;6200;48.144;11.424;2022-11-11T04:24:31;0.40;;;0.40;;
12275;SDS011;6200;48.144;11.424;2022-11-11T04:27:16;0.40;;;0.40;;
12275;SDS011;6200;48.144;11.424;2022-11-11T04:29:43;0.30;;;0.30;;
12275;SDS011;6200;48.144;11.424;2022-11-11T04:32:11;0.50;;;0.50;;
12275;SDS011;6200;48.144;11.424;2022-11-11T04:35:02;0.40;;;0.40;;
12275;SDS011;6200;48.144;11.424;2022-11-11T04:37:33;0.30;;;0.30;;
12275;SDS011;6200;48.144;11.424;2022-11-11T04:40:00;0.40;;;0.40;;
12275;SDS011;6200;48.144;11.424;2022-11-11T04:42:44;0.50;;;0.50;;
12275;SDS011;6200;48.144;11.424;2022-11-11T04:45:10;0.40;;;0.40;;
12275;SDS011;6200;48.144;11.424;2022-11-11T04:47:59;0.40;;;0.40;;
12275;SDS011;6200;48.144;11.424;2022-11-11T04:50:27;0.40;;;0.40;;
12275;SDS011;6200;48.144;11.424;2022-11-11T04:52:55;0.50;;;0.50;;
12275;SDS011;6200;48.144;11.424;2022-11-11T04:55:20;0.40;;;0.40;;
12275;SDS011;6200;48.144;11.424;2022-11-11T04:58:05;0.40;;;0.40;;
12275;SDS011;6200;48.144;11.424;2022-11-11T05:00:31;0.30;;;0.30;;
12275;SDS011;6200;48.144;11.424;2022-11-11T05:02:57;0.40;;;0.40;;
12275;SDS011;6200;48.144;11.424;2022-11-11T05:05:43;0.40;;;0.40;;
12275;SDS011;6200;48.144;11.424;2022-11-11T05:08:41;0.40;;;0.40;;
12275;SDS011;6200;48.144;11.424;2022-11-11T05:11:21;0.40;;;0.40;;
12275;SDS011;6200;48.144;11.424;2022-11-11T05:13:47;0.40;;;0.40;;
12275;SDS011;6200;48.144;11.424;2022-11-11T05:16:33;0.50;;;0.50;;
12275;SDS011;6200;48.144;11.424;2022-11-11T05:19:29;0.43;;;0.43;;
12275;SDS011;6200;48.144;11.424;2022-11-11T05:24:47;0.40;;;0.40;;
12275;SDS011;6200;48.144;11.424;2022-11-11T05:27:32;0.40;;;0.40;;
12275;SDS011;6200;48.144;11.424;2022-11-11T05:29:57;0.40;;;0.40;;
12275;SDS011;6200;48.144;11.424;2022-11-11T05:32:23;0.33;;;0.33;;
12275;SDS011;6200;48.144;11.424;2022-11-11T05:34:49;0.30;;;0.30;;
12275;SDS011;6200;48.144;11.424;2022-11-11T05:37:15;0.40;;;0.40;;
12275;SDS011;6200;48.144;11.424;2022-11-11T05:39:41;0.30;;;0.30;;
12275;SDS011;6200;48.144;11.424;2022-11-11T05:42:07;0.50;;;0.50;;
12275;SDS011;6200;48.144;11.424;2022-11-11T05:44:33;0.50;;;0.50;;
12275;SDS011;6200;48.144;11.424;2022-11-11T05:46:59;0.40;;;0.40;;
12275;SDS011;6200;48.144;11.424;2022-11-11T05:49:25;0.50;;;0.50;;
12275;SDS011;6200;48.144;11.424;2022-11-11T05:51:50;0.40;;;0.40;;
12275;SDS011;6200;48.144;11.424;2022-11-11T05:54:17;0.50;;;0.50;;
12275;SDS011;6200;48.144;11.424;2022-11-11T05:56:43;0.30;;;0.30;;
12275;SDS011;6200;48.144;11.424;2022-11-11T05:59:09;0.40;;;0.40;;
12275;SDS011;6200;48.144;11.424;2022-11-11T06:01:35;0.50;;;0.50;;
12275;SDS011;6200;48.144;11.424;2022-11-11T06:04:01;0.30;;;0.30;;
12275;SDS011;6200;48.144;11.424;2022-11-11T06:06:27;0.37;;;0.37;;
12275;SDS011;6200;48.144;11.424;2022-11-11T06:08:53;0.40;;;0.40;;
12275;SDS011;6200;48.144;11.424;2022-11-11T06:11:18;0.37;;;0.37;;
12275;SDS011;6200;48.144;11.424;2022-11-11T06:13:44;0.50;;;0.50;;
12275;SDS011;6200;48.144;11.424;2022-11-11T06:16:10;0.53;;;0.53;;
12275;SDS011;6200;48.144;11.424;2022-11-11T06:18:35;0.37;;;0.37;;
12275;SDS011;6200;48.144;11.424;2022-11-11T06:21:01;0.40;;;0.40;;
12275;SDS011;6200;48.144;11.424;2022-11-11T06:23:27;0.40;;;0.40;;
12275;SDS011;6200;48.144;11.424;2022-11-11T06:25:53;0.43;;;0.43;;
12275;SDS011;6200;48.144;11.424;2022-11-11T06:31:05;0.30;;;0.30;;
12275;SDS011;6200;48.144;11.424;2022-11-11T06:33:35;0.40;;;0.40;;
12275;SDS011;6200;48.144;11.424;2022-11-11T06:36:02;0.33;;;0.33;;
12275;SDS011;6200;48.144;11.424;2022-11-11T06:38:28;0.40;;;0.40;;
12275;SDS011;6200;48.144;11.424;2022-11-11T06:40:54;0.50;;;0.50;;
12275;SDS011;6200;48.144;11.424;2022-11-11T06:43:20;0.43;;;0.43;;
12275;SDS011;6200;48.144;11.424;2022-11-11T06:45:48;0.40;;;0.40;;
12275;SDS011;6200;48.144;11.424;2022-11-11T06:48:18;0.40;;;0.40;;
12275;SDS011;6200;48.144;11.424;2022-11-11T06:50:44;0.47;;;0.47;;
12275;SDS011;6200;48.144;11.424;2022-11-11T06:53:11;0.30;;;0.30;;
12275;SDS011;6200;48.144;11.424;2022-11-11T06:55:38;0.40;;;0.40;;
12275;SDS011;6200;48.144;11.424;2022-11-11T06:58:08;0.40;;;0.40;;
12275;SDS011;6200;48.144;11.424;2022-11-11T07:00:36;0.40;;;0.40;;
12275;SDS011;6200;48.144;11.424;2022-11-11T07:03:03;0.30;;;0.30;;
12275;SDS011;6200;48.144;11.424;2022-11-11T07:05:29;0.60;;;0.60;;
12275;SDS011;6200;48.144;11.424;2022-11-11T07:07:55;0.33;;;0.33;;
12275;SDS011;6200;48.144;11.424;2022-11-11T07:10:21;0.33;;;0.33;;
12275;SDS011;6200;48.144;11.424;2022-11-11T07:12:46;0.50;;;0.50;;
12275;SDS011;6200;48.144;11.424;2022-11-11T07:15:12;0.30;;;0.30;;
12275;SDS011;6200;48.144;11.424;2022-11-11T07:17:38;0.47;;;0.47;;
12275;SDS011;6200;48.144;11.424;2022-11-11T07:20:04;0.30;;;0.30;;
12275;SDS011;6200;48.144;11.424;2022-11-11T07:22:30;0.30;;;0.30;;
12275;SDS011;6200;48.144;11.424;2022-11-11T07:24:55;0.37;;;0.37;;
12275;SDS011;6200;48.144;11.424;2022-11-11T07:27:21;0.40;;;0.40;;
12275;SDS011;6200;48.144;11.424;2022-11-11T07:29:46;0.50;;;0.50;;
12275;SDS011;6200;48.144;11.424;2022-11-11T07:32:13;0.30;;;0.30;;
12275;SDS011;6200;48.144;11.424;2022-11-11T07:34:41;0.40;;;0.40;;
12275;SDS011;6200;48.144;11.424;2022-11-11T07:37:07;0.30;;;0.30;;
12275;SDS011;6200;48.144;11.424;2022-11-11T07:39:32;0.30;;;0.30;;
12275;SDS011;6200;48.144;11.424;2022-11-11T07:41:58;0.30;;;0.30;;
12275;SDS011;6200;48.144;11.424;2022-11-11T07:44:23;0.30;;;0.30;;
12275;SDS011;6200;48.144;11.424;2022-11-11T07:46:49;0.33;;;0.33;;
12275;SDS011;6200;48.144;11.424;2022-11-11T07:49:15;0.20;;;0.20;;
12275;SDS011;6200;48.144;11.424;2022-11-11T07:51:40;0.20;;;0.20;;
12275;SDS011;6200;48.144;11.424;2022-11-11T07:54:05;0.23;;;0.23;;
12275;SDS011;6200;48.144;11.424;2022-11-11T07:56:31;0.30;;;0.30;;
12275;SDS011;6200;48.144;11.424;2022-11-11T07:58:56;0.30;;;0.30;;
12275;SDS011;6200;48.144;11.424;2022-11-11T08:01:22;0.30;;;0.30;;
12275;SDS011;6200;48.144;11.424;2022-11-11T08:03:47;0.27;;;0.27;;
12275;SDS011;6200;48.144;11.424;2022-11-11T08:06:19;0.30;;;0.30;;
12275;SDS011;6200;48.144;11.424;2022-11-11T08:08:46;0.20;;;0.20;;
12275;SDS011;6200;48.144;11.424;2022-11-11T08:11:12;0.20;;;0.20;;
12275;SDS011;6200;48.144;11.424;2022-11-11T08:13:38;0.30;;;0.30;;
12275;SDS011;6200;48.144;11.424;2022-11-11T08:16:07;0.30;;;0.30;;
12275;SDS011;6200;48.144;11.424;2022-11-11T08:18:34;0.33;;;0.33;;
12275;SDS011;6200;48.144;11.424;2022-11-11T08:21:00;0.20;;;0.20;;
12275;SDS011;6200;48.144;11.424;2022-11-11T08:23:27;0.20;;;0.20;;
12275;SDS011;6200;48.144;11.424;2022-11-11T08:25:59;0.27;;;0.27;;
12275;SDS011;6200;48.144;11.424;2022-11-11T08:28:26;0.20;;;0.20;;
12275;SDS011;6200;48.144;11.424;2022-11-11T08:30:52;0.20;;;0.20;;
12275;SDS011;6200;48.144;11.424;2022-11-11T08:33:18;0.20;;;0.20;;
12275;SDS011;6200;48.144;11.424;2022-11-11T08:35:44;0.20;;;0.20;;
12275;SDS011;6200;48.144;11.424;2022-11-11T08:38:10;0.20;;;0.20;;
12275;SDS011;6200;48.144;11.424;2022-11-11T08:40:35;0.20;;;0.20;;
12275;SDS011;6200;48.144;11.424;2022-11-11T08:43:01;0.20;;;0.20;;
12275;SDS011;6200;48.144;11.424;2022-11-11T08:45:26;0.20;;;0.20;;
12275;SDS011;6200;48.144;11.424;2022-11-11T08:47:52;0.20;;;0.20;;
12275;SDS011;6200;48.144;11.424;2022-11-11T08:50:18;0.20;;;0.20;;
12275;SDS011;6200;48.144;11.424;2022-11-11T08:52:47;0.20;;;0.20;;
12275;SDS011;6200;48.144;11.424;2022-11-11T08:55:13;0.20;;;0.20;;
12275;SDS011;6200;48.144;11.424;2022-11-11T08:57:39;0.30;;;0.30;;
12275;SDS011;6200;48.144;11.424;2022-11-11T09:00:05;0.20;;;0.20;;
12275;SDS011;6200;48.144;11.424;2022-11-11T09:02:31;0.20;;;0.20;;
12275;SDS011;6200;48.144;11.424;2022-11-11T09:04:57;0.20;;;0.20;;
12275;SDS011;6200;48.144;11.424;2022-11-11T09:07:22;0.20;;;0.20;;
12275;SDS011;6200;48.144;11.424;2022-11-11T09:09:48;0.20;;;0.20;;
12275;SDS011;6200;48.144;11.424;2022-11-11T09:12:14;0.20;;;0.20;;
12275;SDS011;6200;48.144;11.424;2022-11-11T09:14:40;0.27;;;0.27;;
12275;SDS011;6200;48.144;11.424;2022-11-11T09:17:06;0.20;;;0.20;;
12275;SDS011;6200;48.144;11.424;2022-11-11T09:19:31;0.20;;;0.20;;
12275;SDS011;6200;48.144;11.424;2022-11-11T09:21:57;0.20;;;0.20;;
12275;SDS011;6200;48.144;11.424;2022-11-11T09:24:22;0.20;;;0.20;;
12275;SDS011;6200;48.144;11.424;2022-11-11T09:26:48;0.20;;;0.20;;
12275;SDS011;6200;48.144;11.424;2022-11-11T09:29:15;0.20;;;0.20;;
12275;SDS011;6200;48.144;11.424;2022-11-11T09:31:41;0.20;;;0.20;;
12275;SDS011;6200;48.144;11.424;2022-11-11T09:34:06;0.30;;;0.30;;
12275;SDS011;6200;48.144;11.424;2022-11-11T09:36:33;0.20;;;0.20;;
12275;SDS011;6200;48.144;11.424;2022-11-11T09:38:59;0.20;;;0.20;;
12275;SDS011;6200;48.144;11.424;2022-11-11T09:41:36;0.20;;;0.20;;
12275;SDS011;6200;48.144;11.424;2022-11-11T09:44:20;0.20;;;0.20;;
12275;SDS011;6200;48.144;11.424;2022-11-11T09:47:51;0.20;;;0.20;;
12275;SDS011;6200;48.144;11.424;2022-11-11T09:50:10;0.20;;;0.20;;
12275;SDS011;6200;48.144;11.424;2022-11-11T09:52:42;0.20;;;0.20;;
12275;SDS011;6200;48.144;11.424;2022-11-11T09:55:36;0.20;;;0.20;;
12275;SDS011;6200;48.144;11.424;2022-11-11T10:00:45;0.20;;;0.20;;
12275;SDS011;6200;48.144;11.424;2022-11-11T10:03:16;0.20;;;0.20;;
12275;SDS011;6200;48.144;11.424;2022-11-11T10:05:51;0.20;;;0.20;;
12275;SDS011;6200;48.144;11.424;2022-11-11T10:08:25;0.20;;;0.20;;
12275;SDS011;6200;48.144;11.424;2022-11-11T10:10:54;0.20;;;0.20;;
12275;SDS011;6200;48.144;11.424;2022-11-11T10:13:27;0.20;;;0.20;;
12275;SDS011;6200;48.144;11.424;2022-11-11T10:21:29;0.20;;;0.20;;
12275;SDS011;6200;48.144;11.424;2022-11-11T10:24:01;0.20;;;0.20;;
12275;SDS011;6200;48.144;11.424;2022-11-11T10:26:36;0.23;;;0.23;;
12275;SDS011;6200;48.144;11.424;2022-11-11T10:29:04;0.20;;;0.20;;
12275;SDS011;6200;48.144;11.424;2022-11-11T10:31:37;0.20;;;0.20;;
12275;SDS011;6200;48.144;11.424;2022-11-11T10:34:09;0.20;;;0.20;;
12275;SDS011;6200;48.144;11.424;2022-11-11T10:36:47;0.20;;;0.20;;
12275;SDS011;6200;48.144;11.424;2022-11-11T10:39:19;0.20;;;0.20;;
12275;SDS011;6200;48.144;11.424;2022-11-11T10:42:10;0.20;;;0.20;;
12275;SDS011;6200;48.144;11.424;2022-11-11T10:44:42;0.20;;;0.20;;
12275;SDS011;6200;48.144;11.424;2022-11-11T10:49:38;0.20;;;0.20;;
12275;SDS011;6200;48.144;11.424;2022-11-11T10:52:11;0.20;;;0.20;;
12275;SDS011;6200;48.144;11.424;2022-11-11T10:54:45;0.20;;;0.20;;
12275;SDS011;6200;48.144;11.424;2022-11-11T10:57:20;0.20;;;0.20;;
12275;SDS011;6200;48.144;11.424;2022-11-11T11:05:24;0.20;;;0.20;;
12275;SDS011;6200;48.144;11.424;2022-11-11T11:07:58;0.20;;;0.20;;
12275;SDS011;6200;48.144;11.424;2022-11-11T11:10:38;0.20;;;0.20;;
12275;SDS011;6200;48.144;11.424;2022-11-11T11:13:18;0.20;;;0.20;;
12275;SDS011;6200;48.144;11.424;2022-11-11T11:15:53;0.20;;;0.20;;
12275;SDS011;6200;48.144;11.424;2022-11-11T11:18:22;0.20;;;0.20;;
12275;SDS011;6200;48.144;11.424;2022-11-11T11:20:55;0.20;;;0.20;;
12275;SDS011;6200;48.144;11.424;2022-11-11T11:23:42;0.20;;;0.20;;
12275;SDS011;6200;48.144;11.424;2022-11-11T11:26:10;0.20;;;0.20;;
12275;SDS011;6200;48.144;11.424;2022-11-11T11:31:35;0.20;;;0.20;;
12275;SDS011;6200;48.144;11.424;2022-11-11T11:34:05;0.20;;;0.20;;
12275;SDS011;6200;48.144;11.424;2022-11-11T11:36:30;0.20;;;0.20;;
12275;SDS011;6200;48.144;11.424;2022-11-11T11:38:56;0.20;;;0.20;;
12275;SDS011;6200;48.144;11.424;2022-11-11T11:47:25;0.20;;;0.20;;
12275;SDS011;6200;48.144;11.424;2022-11-11T11:49:58;0.20;;;0.20;;
12275;SDS011;6200;48.144;11.424;2022-11-11T11:55:37;0.20;;;0.20;;
12275;SDS011;6200;48.144;11.424;2022-11-11T11:58:29;0.20;;;0.20;;
12275;SDS011;6200;48.144;11.424;2022-11-11T12:01:12;0.20;;;0.20;;
12275;SDS011;6200;48.144;11.424;2022-11-11T12:06:21;0.20;;;0.20;;
12275;SDS011;6200;48.144;11.424;2022-11-11T12:09:01;0.20;;;0.20;;
12275;SDS011;6200;48.144;11.424;2022-11-11T12:14:57;0.20;;;0.20;;
12275;SDS011;6200;48.144;11.424;2022-11-11T12:17:39;0.20;;;0.20;;
12275;SDS011;6200;48.144;11.424;2022-11-11T12:23:02;0.20;;;0.20;;
12275;SDS011;6200;48.144;11.424;2022-11-11T12:28:45;0.20;;;0.20;;
12275;SDS011;6200;48.144;11.424;2022-11-11T12:34:14;0.20;;;0.20;;
12275;SDS011;6200;48.144;11.424;2022-11-11T12:37:25;0.20;;;0.20;;
12275;SDS011;6200;48.144;11.424;2022-11-11T12:45:22;0.20;;;0.20;;
12275;SDS011;6200;48.144;11.424;2022-11-11T12:48:05;0.20;;;0.20;;
12275;SDS011;6200;48.144;11.424;2022-11-11T13:04:13;0.20;;;0.20;;
12275;SDS011;6200;48.144;11.424;2022-11-11T13:12:18;0.20;;;0.20;;
12275;SDS011;6200;48.144;11.424;2022-11-11T13:15:02;0.20;;;0.20;;
12275;SDS011;6200;48.144;11.424;2022-11-11T13:17:34;0.20;;;0.20;;
12275;SDS011;6200;48.144;11.424;2022-11-11T13:20:06;0.20;;;0.20;;
12275;SDS011;6200;48.144;11.424;2022-11-11T13:22:57;0.20;;;0.20;;
12275;SDS011;6200;48.144;11.424;2022-11-11T13:25:23;0.20;;;0.20;;
12275;SDS011;6200;48.144;11.424;2022-11-11T13:27:55;0.20;;;0.20;;
12275;SDS011;6200;48.144;11.424;2022-11-11T13:33:10;0.20;;;0.20;;
12275;SDS011;6200;48.144;11.424;2022-11-11T13:35:46;0.20;;;0.20;;
12275;SDS011;6200;48.144;11.424;2022-11-11T13:38:50;0.20;;;0.20;;
12275;SDS011;6200;48.144;11.424;2022-11-11T13:41:10;0.20;;;0.20;;
12275;SDS011;6200;48.144;11.424;2022-11-11T13:43:41;0.20;;;0.20;;
12275;SDS011;6200;48.144;11.424;2022-11-11T13:49:06;0.20;;;0.20;;
12275;SDS011;6200;48.144;11.424;2022-11-11T13:51:44;0.20;;;0.20;;
12275;SDS011;6200;48.144;11.424;2022-11-11T13:54:26;0.20;;;0.20;;
12275;SDS011;6200;48.144;11.424;2022-11-11T13:57:01;0.20;;;0.20;;
12275;SDS011;6200;48.144;11.424;2022-11-11T13:59:43;0.20;;;0.20;;
12275;SDS011;6200;48.144;11.424;2022-11-11T14:12:41;0.20;;;0.20;;
12275;SDS011;6200;48.144;11.424;2022-11-11T14:20:43;0.20;;;0.20;;
12275;SDS011;6200;48.144;11.424;2022-11-11T14:25:42;0.20;;;0.20;;
12275;SDS011;6200;48.144;11.424;2022-11-11T14:28:28;0.23;;;0.23;;
12275;SDS011;6200;48.144;11.424;2022-11-11T14:30:57;0.20;;;0.20;;
12275;SDS011;6200;48.144;11.424;2022-11-11T14:33:54;0.20;;;0.20;;
12275;SDS011;6200;48.144;11.424;2022-11-11T14:36:43;0.20;;;0.20;;
12275;SDS011;6200;48.144;11.424;2022-11-11T14:41:51;0.20;;;0.20;;
12275;SDS011;6200;48.144;11.424;2022-11-11T14:54:52;0.20;;;0.20;;
12275;SDS011;6200;48.144;11.424;2022-11-11T14:57:25;0.20;;;0.20;;
12275;SDS011;6200;48.144;11.424;2022-11-11T15:00:00;0.20;;;0.20;;
12275;SDS011;6200;48.144;11.424;2022-11-11T15:02:34;0.20;;;0.20;;
12275;SDS011;6200;48.144;11.424;2022-11-11T15:05:05;0.20;;;0.20;;
12275;SDS011;6200;48.144;11.424;2022-11-11T15:07:52;0.20;;;0.20;;
12275;SDS011;6200;48.144;11.424;2022-11-11T15:15:53;0.20;;;0.20;;
12275;SDS011;6200;48.144;11.424;2022-11-11T15:18:58;0.20;;;0.10;;
12275;SDS011;6200;48.144;11.424;2022-11-11T15:24:06;0.20;;;0.20;;
12275;SDS011;6200;48.144;11.424;2022-11-11T15:26:56;0.20;;;0.20;;
12275;SDS011;6200;48.144;11.424;2022-11-11T15:34:54;0.20;;;0.20;;
12275;SDS011;6200;48.144;11.424;2022-11-11T15:37:32;0.20;;;0.20;;
12275;SDS011;6200;48.144;11.424;2022-11-11T15:40:01;0.20;;;0.20;;
12275;SDS011;6200;48.144;11.424;2022-11-11T15:42:36;0.20;;;0.20;;
12275;SDS011;6200;48.144;11.424;2022-11-11T15:45:19;0.20;;;0.20;;
12275;SDS011;6200;48.144;11.424;2022-11-11T15:47:50;0.20;;;0.20;;
12275;SDS011;6200;48.144;11.424;2022-11-11T15:50:18;0.20;;;0.20;;
12275;SDS011;6200;48.144;11.424;2022-11-11T15:53:00;0.20;;;0.20;;
12275;SDS011;6200;48.144;11.424;2022-11-11T15:55:28;0.20;;;0.20;;
12275;SDS011;6200;48.144;11.424;2022-11-11T15:58:08;0.20;;;0.20;;
12275;SDS011;6200;48.144;11.424;2022-11-11T16:00:42;0.20;;;0.20;;
12275;SDS011;6200;48.144;11.424;2022-11-11T16:03:12;0.30;;;0.30;;
12275;SDS011;6200;48.144;11.424;2022-11-11T16:05:52;0.20;;;0.20;;
12275;SDS011;6200;48.144;11.424;2022-11-11T16:08:18;0.20;;;0.20;;
12275;SDS011;6200;48.144;11.424;2022-11-11T16:10:44;0.20;;;0.20;;
12275;SDS011;6200;48.144;11.424;2022-11-11T16:15:54;0.20;;;0.20;;
12275;SDS011;6200;48.144;11.424;2022-11-11T16:18:31;0.20;;;0.20;;
12275;SDS011;6200;48.144;11.424;2022-11-11T16:23:36;0.20;;;0.20;;
12275;SDS011;6200;48.144;11.424;2022-11-11T16:26:03;0.20;;;0.20;;
12275;SDS011;6200;48.144;11.424;2022-11-11T16:28:36;0.20;;;0.20;;
12275;SDS011;6200;48.144;11.424;2022-11-11T16:37:06;0.20;;;0.20;;
12275;SDS011;6200;48.144;11.424;2022-11-11T16:39:33;0.20;;;0.20;;
12275;SDS011;6200;48.144;11.424;2022-11-11T16:42:00;0.20;;;0.20;;
12275;SDS011;6200;48.144;11.424;2022-11-11T16:44:35;0.20;;;0.20;;
12275;SDS011;6200;48.144;11.424;2022-11-11T16:52:52;0.20;;;0.20;;
12275;SDS011;6200;48.144;11.424;2022-11-11T16:55:29;0.20;;;0.13;;
12275;SDS011;6200;48.144;11.424;2022-11-11T16:58:01;0.20;;;0.20;;
12275;SDS011;6200;48.144;11.424;2022-11-11T17:00:35;0.20;;;0.20;;
12275;SDS011;6200;48.144;11.424;2022-11-11T17:03:15;0.20;;;0.20;;
12275;SDS011;6200;48.144;11.424;2022-11-11T17:05:47;0.20;;;0.10;;
12275;SDS011;6200;48.144;11.424;2022-11-11T17:08:34;0.20;;;0.10;;
12275;SDS011;6200;48.144;11.424;2022-11-11T17:11:05;0.20;;;0.17;;
12275;SDS011;6200;48.144;11.424;2022-11-11T17:13:35;0.20;;;0.20;;
12275;SDS011;6200;48.144;11.424;2022-11-11T17:16:02;0.20;;;0.20;;
12275;SDS011;6200;48.144;11.424;2022-11-11T17:18:35;0.20;;;0.20;;
12275;SDS011;6200;48.144;11.424;2022-11-11T17:21:02;0.20;;;0.20;;
12275;SDS011;6200;48.144;11.424;2022-11-11T17:23:28;0.20;;;0.20;;
12275;SDS011;6200;48.144;11.424;2022-11-11T17:25:54;0.20;;;0.20;;
12275;SDS011;6200;48.144;11.424;2022-11-11T17:28:21;0.20;;;0.20;;
12275;SDS011;6200;48.144;11.424;2022-11-11T17:30:47;0.20;;;0.20;;
12275;SDS011;6200;48.144;11.424;2022-11-11T17:33:13;0.20;;;0.20;;
12275;SDS011;6200;48.144;11.424;2022-11-11T17:35:38;0.20;;;0.20;;
12275;SDS011;6200;48.144;11.424;2022-11-11T17:38:04;0.20;;;0.20;;
12275;SDS011;6200;48.144;11.424;2022-11-11T17:40:30;0.20;;;0.20;;
12275;SDS011;6200;48.144;11.424;2022-11-11T17:42:55;0.23;;;0.23;;